Time;durP1;ratioP1;P1;durP2;ratioP2;P2;SDS_P1;SDS_P2;PMS_P1;PMS_P2;Temp;Humidity;BMP_temperature;BMP_pressure;BME280_temperature;BME280_humidity;BME280_pressure;Samples;Min_cycle;Max_cycle;Signal;HPM_P1;HPM_P2
2021/12/26 00:01:19;;;;;;;6.75;1.30;;;-0.60;62.50;;;;;;5034329;28;20033;-75
2021/12/26 00:03:46;;;;;;;2.97;1.08;;;-0.70;62.20;;;;;;5033468;28;20092;-75
2021/12/26 00:06:15;;;;;;;4.40;1.15;;;-0.80;62.60;;;;;;5033698;28;20036;-75
2021/12/26 00:08:42;;;;;;;3.85;0.93;;;-0.80;62.50;;;;;;5031783;28;20056;-75
2021/12/26 00:11:09;;;;;;;1.95;0.73;;;-0.80;62.40;;;;;;5034000;28;20034;-75
2021/12/26 00:13:35;;;;;;;2.47;0.98;;;-0.80;62.00;;;;;;5033228;28;20057;-75
2021/12/26 00:16:02;;;;;;;3.65;0.95;;;-0.70;62.20;;;;;;5034076;28;20046;-75
2021/12/26 00:18:28;;;;;;;1.48;0.60;;;-0.60;62.30;;;;;;5032375;28;20507;-74
2021/12/26 00:20:54;;;;;;;2.67;0.88;;;-0.50;62.10;;;;;;5033524;28;20053;-75
2021/12/26 00:23:21;;;;;;;2.10;0.75;;;-0.50;61.40;;;;;;5034058;28;20091;-75
2021/12/26 00:25:47;;;;;;;2.20;0.60;;;-0.50;61.50;;;;;;5032353;28;20034;-74
2021/12/26 00:28:14;;;;;;;2.72;1.08;;;-0.40;61.20;;;;;;5032650;28;20385;-75
2021/12/26 00:30:40;;;;;;;5.38;1.20;;;-0.40;61.30;;;;;;5033733;28;20029;-75
2021/12/26 00:33:05;;;;;;;1.73;0.80;;;-0.50;61.50;;;;;;5041696;28;20029;-75
2021/12/26 00:35:31;;;;;;;3.65;0.80;;;-0.60;62.10;;;;;;5039357;28;20037;-74
2021/12/26 00:37:57;;;;;;;3.15;1.00;;;-0.70;62.30;;;;;;5033800;28;20385;-75
2021/12/26 00:40:26;;;;;;;4.20;0.90;;;-0.60;62.10;;;;;;5033515;28;20443;-75
2021/12/26 00:42:53;;;;;;;1.88;0.90;;;-0.60;62.00;;;;;;5031376;28;20030;-75
2021/12/26 00:45:19;;;;;;;4.80;0.90;;;-0.60;61.70;;;;;;5031040;28;20417;-74
2021/12/26 00:47:46;;;;;;;2.55;0.85;;;-0.70;61.80;;;;;;5031336;28;20036;-74
2021/12/26 00:50:14;;;;;;;2.58;0.77;;;-0.70;62.10;;;;;;5031377;28;20503;-75
2021/12/26 00:52:40;;;;;;;2.58;1.00;;;-0.70;62.20;;;;;;5031273;28;20541;-75
2021/12/26 00:55:09;;;;;;;2.80;1.05;;;-0.80;62.50;;;;;;5030924;28;20141;-74
2021/12/26 00:57:35;;;;;;;2.78;0.80;;;-0.70;62.40;;;;;;5032795;28;20025;-74
2021/12/26 01:00:03;;;;;;;2.35;0.75;;;-0.70;62.50;;;;;;5033402;28;20035;-74
2021/12/26 01:02:29;;;;;;;3.97;0.85;;;-0.70;62.30;;;;;;5032014;28;20441;-74
2021/12/26 01:04:55;;;;;;;2.70;0.80;;;-0.80;62.20;;;;;;5033192;28;20072;-74
2021/12/26 01:10:06;;;;;;;2.22;0.70;;;-0.80;62.40;;;;;;5032602;28;20099;-74
2021/12/26 01:12:32;;;;;;;2.33;0.70;;;-0.80;62.60;;;;;;5033169;28;20034;-74
2021/12/26 01:15:04;;;;;;;1.70;0.80;;;-0.80;62.50;;;;;;5033030;28;20385;-74
2021/12/26 01:17:30;;;;;;;3.53;0.98;;;-1.00;62.90;;;;;;5032879;28;20064;-74
2021/12/26 01:19:56;;;;;;;2.05;0.70;;;-1.00;62.90;;;;;;5032508;28;20473;-74
2021/12/26 01:22:23;;;;;;;3.20;1.35;;;-1.00;63.00;;;;;;5032786;28;20075;-74
2021/12/26 01:24:55;;;;;;;3.15;1.10;;;-1.00;63.40;;;;;;5032877;28;20029;-75
2021/12/26 01:27:25;;;;;;;2.72;0.63;;;-1.00;62.70;;;;;;5032951;28;20377;-75
2021/12/26 01:29:51;;;;;;;1.55;0.75;;;-1.00;62.80;;;;;;5033581;28;20047;-75
2021/12/26 01:32:17;;;;;;;3.20;0.93;;;-1.10;62.70;;;;;;5033206;28;20049;-75
2021/12/26 01:34:44;;;;;;;2.63;0.70;;;-1.00;62.60;;;;;;5032755;28;20026;-75
2021/12/26 01:37:10;;;;;;;2.08;0.70;;;-1.00;62.90;;;;;;5032571;28;20151;-75
2021/12/26 01:39:35;;;;;;;3.65;0.90;;;-1.00;62.50;;;;;;5031130;28;20133;-75
2021/12/26 01:42:03;;;;;;;3.20;1.00;;;-1.00;62.60;;;;;;5031146;28;20034;-75
2021/12/26 01:44:30;;;;;;;3.55;0.98;;;-1.00;62.60;;;;;;5032202;28;20461;-75
2021/12/26 01:46:56;;;;;;;2.63;0.73;;;-0.90;62.60;;;;;;5032379;28;20087;-75
2021/12/26 01:49:25;;;;;;;3.28;0.82;;;-0.90;62.90;;;;;;5032214;28;20037;-75
2021/12/26 01:51:54;;;;;;;3.35;1.15;;;-0.90;62.10;;;;;;5029949;28;20061;-74
2021/12/26 01:54:30;;;;;;;1.83;0.60;;;-0.80;62.00;;;;;;5031793;28;20045;-75
2021/12/26 01:56:57;;;;;;;1.50;0.53;;;-0.80;61.70;;;;;;5032462;28;20386;-75
2021/12/26 01:59:23;;;;;;;3.75;0.90;;;-0.80;62.00;;;;;;5031791;28;20029;-75
2021/12/26 02:01:48;;;;;;;1.75;0.70;;;-0.80;61.80;;;;;;5032429;28;20392;-75
2021/12/26 02:04:14;;;;;;;2.45;0.98;;;-0.80;61.90;;;;;;5032049;28;20037;-75
2021/12/26 02:06:40;;;;;;;2.53;0.98;;;-0.80;62.10;;;;;;5032595;28;20029;-76
2021/12/26 02:09:07;;;;;;;3.35;0.70;;;-0.80;62.00;;;;;;5031948;28;20527;-75
2021/12/26 02:11:33;;;;;;;1.55;0.60;;;-0.70;62.00;;;;;;5032061;28;20037;-75
2021/12/26 02:13:59;;;;;;;1.70;0.70;;;-0.80;61.90;;;;;;5031824;28;20041;-75
2021/12/26 02:16:25;;;;;;;2.97;0.63;;;-0.90;62.80;;;;;;5032261;28;20041;-75
2021/12/26 02:18:51;;;;;;;3.13;0.75;;;-0.80;62.50;;;;;;5031259;28;20034;-74
2021/12/26 02:24:18;;;;;;;2.95;0.90;;;-0.90;62.40;;;;;;5031620;28;20492;-75
2021/12/26 02:29:28;;;;;;;3.92;1.27;;;-0.90;62.30;;;;;;5031730;28;20075;-75
2021/12/26 02:31:54;;;;;;;1.88;0.60;;;-1.00;62.40;;;;;;5032044;28;20428;-75
2021/12/26 02:34:20;;;;;;;1.27;0.55;;;-1.00;62.90;;;;;;5044313;28;20051;-75
2021/12/26 02:36:46;;;;;;;3.05;1.52;;;-1.00;62.20;;;;;;5032697;28;20026;-75
2021/12/26 02:39:12;;;;;;;1.40;0.60;;;-1.00;62.10;;;;;;5036106;28;20380;-75
2021/12/26 02:41:38;;;;;;;1.30;0.60;;;-1.10;62.30;;;;;;5036261;28;20488;-75
2021/12/26 02:44:04;;;;;;;1.67;0.60;;;-1.00;61.90;;;;;;5035410;28;20124;-75
2021/12/26 02:46:29;;;;;;;2.20;0.80;;;-1.00;61.90;;;;;;5035564;28;20037;-75
2021/12/26 02:48:58;;;;;;;2.45;0.82;;;-1.00;61.80;;;;;;5035820;28;20042;-75
2021/12/26 02:51:24;;;;;;;2.28;0.93;;;-1.10;61.40;;;;;;5033150;28;20025;-75
2021/12/26 02:53:50;;;;;;;3.03;0.80;;;-1.20;61.90;;;;;;5035408;28;20056;-75
2021/12/26 02:56:16;;;;;;;3.30;1.00;;;-1.10;62.10;;;;;;5035430;28;20492;-75
2021/12/26 02:58:42;;;;;;;3.60;0.70;;;-1.10;62.10;;;;;;5035616;28;20120;-75
2021/12/26 03:01:10;;;;;;;1.93;0.73;;;-1.20;62.00;;;;;;5035923;28;20048;-75
2021/12/26 03:03:35;;;;;;;1.85;0.60;;;-1.20;62.10;;;;;;5035946;28;20021;-76
2021/12/26 03:06:08;;;;;;;4.97;1.20;;;-1.10;61.90;;;;;;5035622;28;20040;-76
2021/12/26 03:08:34;;;;;;;2.53;0.75;;;-1.10;62.00;;;;;;5035433;28;20036;-76
2021/12/26 03:11:00;;;;;;;3.67;0.77;;;-1.10;61.50;;;;;;5033520;28;20033;-76
2021/12/26 03:13:26;;;;;;;1.73;0.50;;;-1.10;61.70;;;;;;5035443;28;20603;-76
2021/12/26 03:15:52;;;;;;;2.25;0.68;;;-1.20;61.50;;;;;;5034788;28;20499;-76
2021/12/26 03:18:18;;;;;;;1.70;0.60;;;-1.20;61.40;;;;;;5035311;28;20029;-76
2021/12/26 03:20:47;;;;;;;3.28;0.80;;;-1.30;62.00;;;;;;5034918;28;20025;-76
2021/12/26 03:23:15;;;;;;;2.43;0.77;;;-1.20;61.90;;;;;;5034841;28;20025;-75
2021/12/26 03:25:42;;;;;;;3.05;1.17;;;-1.20;61.60;;;;;;5032748;28;20033;-75
2021/12/26 03:28:09;;;;;;;2.43;0.77;;;-1.20;61.70;;;;;;5035414;28;20104;-74
2021/12/26 03:30:36;;;;;;;1.70;0.60;;;-1.10;61.60;;;;;;5034991;28;20091;-75
2021/12/26 03:33:04;;;;;;;2.28;0.80;;;-1.10;61.00;;;;;;5035396;28;20120;-75
2021/12/26 03:35:30;;;;;;;1.88;0.60;;;-1.10;61.20;;;;;;5034739;28;20038;-75
2021/12/26 03:37:58;;;;;;;1.73;0.87;;;-1.10;61.20;;;;;;5034938;28;20451;-75
2021/12/26 03:40:24;;;;;;;3.38;0.80;;;-1.10;60.70;;;;;;5034644;28;20465;-75
2021/12/26 03:42:53;;;;;;;3.10;0.75;;;-1.30;61.20;;;;;;5035048;28;20175;-75
2021/12/26 03:45:19;;;;;;;1.83;0.80;;;-1.30;61.60;;;;;;5034183;28;20036;-76
2021/12/26 03:47:49;;;;;;;1.67;0.57;;;-1.40;61.60;;;;;;5034695;28;20488;-75
2021/12/26 03:50:15;;;;;;;2.95;0.85;;;-1.30;61.60;;;;;;5033426;28;20032;-76
2021/12/26 03:52:41;;;;;;;1.92;0.60;;;-1.30;61.40;;;;;;5034630;28;20029;-75
2021/12/26 03:55:07;;;;;;;3.22;0.82;;;-1.30;61.50;;;;;;5034235;28;20056;-76
2021/12/26 03:57:33;;;;;;;1.42;0.50;;;-1.30;61.60;;;;;;5034516;28;20044;-76
2021/12/26 03:59:59;;;;;;;3.00;0.80;;;-1.10;61.60;;;;;;5034392;28;20038;-76
2021/12/26 04:02:25;;;;;;;3.97;0.70;;;-1.10;61.00;;;;;;5034673;28;20049;-76
2021/12/26 04:04:51;;;;;;;1.45;0.55;;;-1.10;60.60;;;;;;5034255;28;20030;-76
2021/12/26 04:07:17;;;;;;;3.00;0.70;;;-1.20;60.50;;;;;;5034396;28;20035;-76
2021/12/26 04:09:42;;;;;;;2.63;0.80;;;-1.10;60.80;;;;;;5034416;28;20034;-77
2021/12/26 04:12:08;;;;;;;2.00;0.70;;;-1.10;60.50;;;;;;5034484;28;20037;-76
2021/12/26 04:14:34;;;;;;;2.78;0.85;;;-1.10;60.60;;;;;;5034086;28;20395;-75
2021/12/26 04:17:00;;;;;;;1.80;0.65;;;-1.10;60.70;;;;;;5031569;28;20053;-75
2021/12/26 04:19:26;;;;;;;4.70;0.70;;;-1.10;61.00;;;;;;5034358;28;20040;-74
2021/12/26 04:21:51;;;;;;;1.27;0.40;;;-1.10;60.70;;;;;;5033874;28;20112;-75
2021/12/26 04:24:17;;;;;;;1.73;0.60;;;-1.10;60.60;;;;;;5033899;28;20026;-75
2021/12/26 04:26:42;;;;;;;2.08;0.68;;;-1.10;60.70;;;;;;5034001;28;20025;-75
2021/12/26 04:29:09;;;;;;;1.50;0.60;;;-1.00;61.00;;;;;;5033909;28;20029;-75
2021/12/26 04:31:35;;;;;;;1.73;0.60;;;-1.00;60.90;;;;;;5034055;28;20052;-75
2021/12/26 04:34:01;;;;;;;4.07;0.80;;;-1.10;60.60;;;;;;5033761;28;20033;-75
2021/12/26 04:36:27;;;;;;;1.80;0.80;;;-1.10;60.80;;;;;;5034399;28;20044;-75
2021/12/26 04:38:52;;;;;;;2.83;0.87;;;-1.30;61.10;;;;;;5033713;28;20030;-75
2021/12/26 04:41:18;;;;;;;2.10;0.80;;;-1.30;61.30;;;;;;5033044;28;20057;-74
2021/12/26 04:43:44;;;;;;;1.92;0.70;;;-1.30;62.00;;;;;;5033901;28;20028;-75
2021/12/26 04:46:10;;;;;;;1.83;0.50;;;-1.20;61.50;;;;;;5033453;28;20387;-74
2021/12/26 04:48:45;;;;;;;1.20;0.63;;;-1.20;61.50;;;;;;5033540;28;20029;-74
2021/12/26 04:51:12;;;;;;;2.07;0.70;;;-1.20;60.80;;;;;;5033469;28;20036;-75
2021/12/26 04:53:39;;;;;;;1.67;0.70;;;-1.20;61.00;;;;;;5033456;28;20049;-75
2021/12/26 04:56:05;;;;;;;1.92;0.75;;;-1.20;61.10;;;;;;5033606;28;20053;-75
2021/12/26 04:58:32;;;;;;;2.08;0.70;;;-1.20;61.10;;;;;;5033580;28;20461;-74
2021/12/26 05:00:57;;;;;;;4.53;0.70;;;-1.20;61.00;;;;;;5032765;28;20221;-74
2021/12/26 05:03:23;;;;;;;1.77;0.70;;;-1.40;61.30;;;;;;5033261;28;20404;-74
2021/12/26 05:05:49;;;;;;;1.00;0.40;;;-1.40;61.50;;;;;;5033340;28;20080;-74
2021/12/26 05:08:15;;;;;;;1.77;0.70;;;-1.40;61.40;;;;;;5033437;28;20033;-74
2021/12/26 05:10:41;;;;;;;1.53;0.50;;;-1.40;61.60;;;;;;5032964;28;20431;-74
2021/12/26 05:13:06;;;;;;;1.97;0.60;;;-1.40;61.50;;;;;;5032842;28;20033;-74
2021/12/26 05:15:32;;;;;;;1.80;0.67;;;-1.30;61.70;;;;;;5030043;28;20038;-74
2021/12/26 05:17:58;;;;;;;2.33;0.53;;;-1.30;61.00;;;;;;5033031;28;20029;-74
2021/12/26 05:20:25;;;;;;;4.95;0.70;;;-1.30;61.00;;;;;;5032946;28;20103;-74
2021/12/26 05:22:54;;;;;;;2.03;0.70;;;-1.30;61.00;;;;;;5032816;28;20033;-74
2021/12/26 05:25:21;;;;;;;1.77;0.63;;;-1.30;60.60;;;;;;5032503;28;20033;-74
2021/12/26 05:27:47;;;;;;;3.47;0.87;;;-1.40;60.80;;;;;;5033056;28;20033;-75
2021/12/26 05:30:15;;;;;;;2.20;0.53;;;-1.40;61.20;;;;;;5032106;28;20409;-74
2021/12/26 05:32:42;;;;;;;1.57;0.73;;;-1.50;61.40;;;;;;5039456;28;20060;-74
2021/12/26 05:35:09;;;;;;;2.13;0.57;;;-1.50;61.40;;;;;;5041415;28;20048;-74
2021/12/26 05:37:35;;;;;;;2.50;0.70;;;-1.40;61.50;;;;;;5033013;28;20029;-74
2021/12/26 05:40:03;;;;;;;1.30;0.40;;;-1.40;61.20;;;;;;5032403;28;20180;-74
2021/12/26 05:42:29;;;;;;;2.10;0.50;;;-1.30;61.40;;;;;;5032110;28;20112;-74
2021/12/26 05:44:55;;;;;;;2.27;0.93;;;-1.30;61.10;;;;;;5032187;28;20104;-74
2021/12/26 05:47:21;;;;;;;2.07;0.83;;;-1.30;61.20;;;;;;5032545;28;21800;-74
2021/12/26 05:49:46;;;;;;;2.42;1.00;;;-1.20;61.10;;;;;;5029793;28;20037;-74
2021/12/26 05:52:12;;;;;;;2.13;0.77;;;-1.20;60.90;;;;;;5032092;28;20048;-74
2021/12/26 05:54:38;;;;;;;2.70;0.83;;;-1.10;61.00;;;;;;5032476;28;20056;-74
2021/12/26 05:57:04;;;;;;;2.05;0.90;;;-1.00;60.80;;;;;;5032204;28;20030;-74
2021/12/26 05:59:30;;;;;;;1.60;0.33;;;-1.10;60.30;;;;;;5032387;28;20200;-74
2021/12/26 06:01:56;;;;;;;1.60;0.70;;;-1.10;60.40;;;;;;5032274;28;20457;-74
2021/12/26 06:04:21;;;;;;;1.60;0.52;;;-1.00;60.80;;;;;;5031895;28;20461;-75
2021/12/26 06:06:47;;;;;;;2.27;0.67;;;-1.00;60.80;;;;;;5032311;28;20076;-75
2021/12/26 06:09:13;;;;;;;1.92;0.70;;;-1.10;60.60;;;;;;5032252;28;20036;-74
2021/12/26 06:11:39;;;;;;;2.70;0.80;;;-1.10;60.60;;;;;;5031362;28;20040;-74
2021/12/26 06:14:04;;;;;;;1.47;0.60;;;-1.10;61.30;;;;;;5032120;28;20469;-75
2021/12/26 06:16:30;;;;;;;4.65;0.75;;;-1.20;61.30;;;;;;5032165;28;20034;-75
2021/12/26 06:18:56;;;;;;;1.73;0.60;;;-1.20;61.40;;;;;;5032027;28;20076;-74
2021/12/26 06:21:22;;;;;;;2.42;0.80;;;-1.20;61.60;;;;;;5031970;28;20133;-74
2021/12/26 06:23:51;;;;;;;1.90;0.60;;;-1.10;61.80;;;;;;5032339;28;20032;-74
2021/12/26 06:26:22;;;;;;;2.22;0.88;;;-1.10;61.60;;;;;;5032123;28;20113;-74
2021/12/26 06:28:48;;;;;;;2.05;0.70;;;-1.00;61.40;;;;;;5031895;28;20500;-73
2021/12/26 06:31:14;;;;;;;2.45;0.50;;;-1.00;61.50;;;;;;5041677;28;20033;-75
2021/12/26 06:33:40;;;;;;;1.88;1.15;;;-1.00;61.70;;;;;;5044057;28;20061;-75
2021/12/26 06:36:08;;;;;;;1.85;0.75;;;-1.00;61.60;;;;;;5033262;28;20128;-74
2021/12/26 06:38:35;;;;;;;1.20;0.50;;;-1.00;61.60;;;;;;5031775;28;20084;-74
2021/12/26 06:41:01;;;;;;;2.35;0.75;;;-1.00;61.70;;;;;;5031806;28;20049;-74
2021/12/26 06:43:27;;;;;;;1.77;0.60;;;-1.00;61.80;;;;;;5031620;28;20553;-74
2021/12/26 06:45:53;;;;;;;1.48;0.50;;;-0.90;61.80;;;;;;5031960;28;20060;-74
2021/12/26 06:48:20;;;;;;;2.45;0.80;;;-0.90;61.80;;;;;;5029688;28;20030;-74
2021/12/26 06:50:47;;;;;;;1.27;0.40;;;-0.90;61.70;;;;;;5031633;28;20022;-75
2021/12/26 06:53:13;;;;;;;2.25;0.70;;;-0.80;61.40;;;;;;5030996;28;20044;-74
2021/12/26 06:55:39;;;;;;;3.38;0.80;;;-0.80;61.70;;;;;;5031426;28;20049;-72
2021/12/26 06:58:05;;;;;;;1.73;0.50;;;-0.80;61.70;;;;;;5031440;28;20026;-74
2021/12/26 07:00:31;;;;;;;1.38;0.60;;;-0.80;61.40;;;;;;5031547;28;20059;-74
2021/12/26 07:02:57;;;;;;;3.60;0.63;;;-0.80;61.20;;;;;;5031791;28;20034;-74
2021/12/26 07:05:23;;;;;;;2.25;0.57;;;-0.80;61.30;;;;;;5031686;28;20380;-74
2021/12/26 07:07:48;;;;;;;2.58;0.70;;;-0.80;61.70;;;;;;5031405;28;20393;-74
2021/12/26 07:10:15;;;;;;;1.55;0.55;;;-0.90;61.70;;;;;;5029381;28;20029;-74
2021/12/26 07:12:41;;;;;;;2.35;0.57;;;-0.90;61.80;;;;;;5031149;28;20495;-74
2021/12/26 07:15:08;;;;;;;3.35;0.70;;;-0.80;62.10;;;;;;5030995;28;20042;-74
2021/12/26 07:17:34;;;;;;;1.60;0.50;;;-0.90;62.10;;;;;;5031495;28;20022;-74
2021/12/26 07:20:00;;;;;;;3.78;0.80;;;-0.90;62.70;;;;;;5031602;28;20041;-75
2021/12/26 07:22:26;;;;;;;1.38;0.70;;;-0.90;63.00;;;;;;5031168;28;20025;-75
2021/12/26 07:24:51;;;;;;;2.10;0.70;;;-0.80;62.80;;;;;;5034957;28;20473;-75
2021/12/26 07:27:17;;;;;;;1.48;0.50;;;-0.80;62.80;;;;;;5035014;28;20480;-75
2021/12/26 07:29:43;;;;;;;2.08;0.77;;;-0.80;63.10;;;;;;5035564;28;20030;-75
2021/12/26 07:32:10;;;;;;;1.95;0.95;;;-0.80;63.60;;;;;;5041733;28;20029;-75
2021/12/26 07:34:36;;;;;;;1.83;1.00;;;-0.70;63.50;;;;;;5042353;28;20397;-75
2021/12/26 07:40:26;;;;;;;2.33;0.80;;;-0.90;64.10;;;;;;5023043;28;20051;-74
2021/12/26 07:42:52;;;;;;;2.97;0.70;;;-0.80;64.00;;;;;;5035162;28;20045;-73
2021/12/26 07:45:17;;;;;;;3.05;0.90;;;-0.70;64.20;;;;;;5034280;28;20045;-77
2021/12/26 07:47:43;;;;;;;1.45;0.57;;;-0.60;64.30;;;;;;5035253;28;20025;-78
2021/12/26 07:50:10;;;;;;;1.90;0.63;;;-0.70;65.00;;;;;;5034475;28;20029;-80
2021/12/26 07:52:40;;;;;;;3.30;1.05;;;-0.70;64.80;;;;;;5034221;28;20025;-78
2021/12/26 07:55:10;;;;;;;3.03;0.60;;;-0.60;64.80;;;;;;5034216;28;20045;-78
2021/12/26 07:57:36;;;;;;;2.75;1.02;;;-0.60;64.80;;;;;;5034308;28;20408;-77
2021/12/26 08:00:04;;;;;;;3.25;0.95;;;-0.50;64.60;;;;;;5034778;28;20040;-78
2021/12/26 08:02:29;;;;;;;1.98;0.77;;;-0.60;64.80;;;;;;5033830;28;20034;-77
2021/12/26 08:04:55;;;;;;;3.97;0.80;;;-0.70;64.70;;;;;;5034214;28;20464;-79
2021/12/26 08:07:20;;;;;;;3.75;0.90;;;-0.70;65.20;;;;;;5033270;28;20041;-76
2021/12/26 08:09:46;;;;;;;6.03;1.10;;;-0.70;65.30;;;;;;5033080;28;20025;-80
2021/12/26 08:12:12;;;;;;;2.05;0.98;;;-0.80;65.40;;;;;;5033825;28;20452;-75
2021/12/26 08:14:37;;;;;;;2.42;0.77;;;-0.90;65.70;;;;;;5033978;28;20423;-76
2021/12/26 08:17:04;;;;;;;2.20;0.82;;;-0.80;65.60;;;;;;5033992;28;20432;-77
2021/12/26 08:19:29;;;;;;;2.30;0.80;;;-0.70;65.30;;;;;;5034186;28;20033;-78
2021/12/26 08:21:55;;;;;;;1.55;0.95;;;-0.70;65.20;;;;;;5033651;28;20083;-78
2021/12/26 08:24:22;;;;;;;2.10;0.80;;;-0.70;65.00;;;;;;5033020;28;20034;-78
2021/12/26 08:26:51;;;;;;;2.85;0.85;;;-0.70;65.10;;;;;;5033868;28;20057;-77
2021/12/26 08:29:20;;;;;;;2.45;0.80;;;-0.70;65.30;;;;;;5033923;28;20061;-78
2021/12/26 08:31:45;;;;;;;2.05;0.95;;;-0.60;67.10;;;;;;5031105;28;20029;-77
2021/12/26 08:34:11;;;;;;;6.72;0.93;;;-0.50;67.30;;;;;;5033738;28;20439;-78
2021/12/26 08:36:37;;;;;;;2.88;1.00;;;-0.40;66.70;;;;;;5032825;28;20052;-78
2021/12/26 08:39:03;;;;;;;1.85;0.90;;;-0.30;67.80;;;;;;5033870;28;20033;-77
2021/12/26 08:41:29;;;;;;;3.97;1.10;;;-0.20;66.80;;;;;;5033900;28;20059;-77
2021/12/26 08:43:55;;;;;;;3.03;0.70;;;-0.10;67.70;;;;;;5032525;28;20030;-78
2021/12/26 08:46:22;;;;;;;1.55;0.90;;;0.10;69.60;;;;;;5033371;28;20037;-75
2021/12/26 08:48:48;;;;;;;2.65;1.50;;;0.20;67.40;;;;;;5032828;28;20041;-74
2021/12/26 08:51:14;;;;;;;4.50;0.85;;;0.30;66.30;;;;;;5033739;28;20032;-78
2021/12/26 08:53:40;;;;;;;4.57;1.02;;;0.30;66.50;;;;;;5033040;28;20125;-78
2021/12/26 08:56:05;;;;;;;3.30;0.90;;;0.40;66.70;;;;;;5033366;28;20132;-78
2021/12/26 08:58:31;;;;;;;2.35;1.08;;;0.50;66.50;;;;;;5032963;28;20488;-77
2021/12/26 09:00:57;;;;;;;2.90;1.33;;;0.60;65.20;;;;;;5033105;28;20391;-77
2021/12/26 09:03:23;;;;;;;1.45;0.75;;;0.60;65.80;;;;;;5032994;28;20034;-77
2021/12/26 09:05:48;;;;;;;3.03;1.30;;;0.70;66.70;;;;;;5033310;28;20029;-78
2021/12/26 09:08:14;;;;;;;2.85;1.08;;;0.70;63.70;;;;;;5032638;28;20377;-79
2021/12/26 09:10:41;;;;;;;3.55;1.08;;;0.60;65.40;;;;;;5032907;28;20108;-80
2021/12/26 09:13:08;;;;;;;3.03;1.50;;;0.70;66.60;;;;;;5032904;28;20128;-78
2021/12/26 09:15:34;;;;;;;2.67;1.27;;;0.70;64.90;;;;;;5032431;28;20064;-75
2021/12/26 09:18:01;;;;;;;2.63;1.40;;;0.70;65.10;;;;;;5032926;28;20021;-75
2021/12/26 09:20:27;;;;;;;2.13;1.17;;;0.70;64.80;;;;;;5032386;28;20033;-76
2021/12/26 09:22:53;;;;;;;2.92;1.40;;;0.70;64.90;;;;;;5028600;28;20025;-76
2021/12/26 09:25:20;;;;;;;2.67;1.02;;;0.80;65.90;;;;;;5032724;28;20040;-75
2021/12/26 09:27:45;;;;;;;3.17;1.27;;;0.70;64.10;;;;;;5035210;28;20090;-75
2021/12/26 09:30:12;;;;;;;2.78;1.30;;;0.80;64.70;;;;;;5034947;28;20132;-75
2021/12/26 09:32:38;;;;;;;2.97;1.23;;;0.80;65.30;;;;;;5032677;28;20477;-73
2021/12/26 09:35:05;;;;;;;3.50;1.30;;;0.90;65.90;;;;;;5031638;28;20527;-73
2021/12/26 09:37:31;;;;;;;2.22;1.25;;;0.80;64.90;;;;;;5032320;28;20029;-74
2021/12/26 09:39:57;;;;;;;4.47;1.17;;;0.80;67.40;;;;;;5032454;28;20037;-74
2021/12/26 09:42:24;;;;;;;5.30;1.45;;;0.80;65.60;;;;;;5032239;28;20052;-74
2021/12/26 09:44:50;;;;;;;5.57;1.42;;;0.80;66.80;;;;;;5032603;28;20037;-78
2021/12/26 09:47:16;;;;;;;2.50;1.08;;;1.00;69.10;;;;;;5032646;28;20033;-81
2021/12/26 09:49:42;;;;;;;1.95;0.85;;;1.10;67.80;;;;;;5031925;28;20021;-80
2021/12/26 09:52:08;;;;;;;2.17;1.23;;;1.30;69.60;;;;;;5032823;28;20033;-78
2021/12/26 09:54:34;;;;;;;3.63;1.52;;;1.40;67.20;;;;;;5031759;28;20058;-75
2021/12/26 09:57:00;;;;;;;2.45;1.33;;;1.50;68.40;;;;;;5032338;28;20464;-74
2021/12/26 09:59:30;;;;;;;3.33;1.08;;;1.50;65.70;;;;;;5032554;28;20071;-74
2021/12/26 10:02:05;;;;;;;2.65;1.20;;;1.60;66.50;;;;;;5032019;28;20540;-73
2021/12/26 10:04:33;;;;;;;3.70;1.70;;;1.70;66.10;;;;;;5031942;28;20125;-74
2021/12/26 10:07:05;;;;;;;3.90;1.30;;;1.80;66.30;;;;;;5032377;28;20091;-74
2021/12/26 10:09:32;;;;;;;3.08;1.90;;;1.80;66.70;;;;;;5031985;28;20033;-75
2021/12/26 10:12:00;;;;;;;2.65;1.35;;;1.80;65.80;;;;;;5032238;28;20060;-75
2021/12/26 10:14:29;;;;;;;3.38;1.92;;;1.80;66.40;;;;;;5031340;28;20063;-73
2021/12/26 10:16:58;;;;;;;3.70;1.73;;;1.80;66.40;;;;;;5032018;28;20024;-74
2021/12/26 10:19:24;;;;;;;3.25;1.40;;;1.90;66.90;;;;;;5031672;28;20080;-74
2021/12/26 10:22:10;;;;;;;4.07;1.63;;;1.90;66.40;;;;;;5031694;28;20026;-74
2021/12/26 10:24:44;;;;;;;4.63;1.45;;;2.00;66.20;;;;;;5031832;28;20036;-75
2021/12/26 10:27:14;;;;;;;4.30;1.52;;;2.20;66.90;;;;;;5032120;28;20037;-74
2021/12/26 10:29:47;;;;;;;4.10;1.27;;;2.40;67.30;;;;;;5031200;28;20112;-77
2021/12/26 10:32:24;;;;;;;2.70;1.42;;;2.50;66.70;;;;;;5032072;28;20025;-80
2021/12/26 10:34:56;;;;;;;3.60;1.60;;;2.70;65.70;;;;;;5031924;28;20030;-77
2021/12/26 10:37:28;;;;;;;3.95;1.60;;;2.70;66.00;;;;;;5031649;28;20037;-79
2021/12/26 10:40:05;;;;;;;3.55;1.75;;;2.70;64.60;;;;;;5031737;28;20029;-81
2021/12/26 10:42:34;;;;;;;5.07;1.30;;;2.70;64.90;;;;;;5031467;28;20433;-81
2021/12/26 10:45:09;;;;;;;3.45;1.52;;;2.70;65.30;;;;;;5031084;28;20026;-80
2021/12/26 10:47:37;;;;;;;2.58;1.45;;;2.80;65.10;;;;;;5030894;28;20075;-79
2021/12/26 10:50:16;;;;;;;3.70;1.75;;;2.80;64.60;;;;;;5031253;28;20507;-78
2021/12/26 10:53:03;;;;;;;5.03;2.10;;;2.80;65.50;;;;;;5031783;28;20025;-79
2021/12/26 10:55:32;;;;;;;5.03;1.65;;;2.80;65.30;;;;;;5031620;28;20042;-80
2021/12/26 10:58:01;;;;;;;3.10;1.90;;;2.90;65.10;;;;;;5032677;28;20084;-80
2021/12/26 11:00:37;;;;;;;2.92;1.80;;;3.00;64.90;;;;;;5034528;28;20029;-76
2021/12/26 11:03:09;;;;;;;7.00;2.45;;;3.00;65.00;;;;;;5034894;28;20499;-80
2021/12/26 11:05:45;;;;;;;5.13;2.00;;;2.90;64.80;;;;;;5035430;28;20096;-78
2021/12/26 11:08:16;;;;;;;4.07;2.10;;;2.90;65.60;;;;;;5034568;28;20691;-78
2021/12/26 11:10:46;;;;;;;4.20;2.13;;;2.90;64.90;;;;;;5034647;28;20104;-78
2021/12/26 11:13:37;;;;;;;3.35;2.03;;;2.80;65.50;;;;;;5035299;28;20040;-78
2021/12/26 11:16:06;;;;;;;3.70;2.20;;;2.90;66.10;;;;;;5034688;28;20045;-79
2021/12/26 11:18:34;;;;;;;3.60;2.17;;;3.00;66.10;;;;;;5035027;28;20048;-78
2021/12/26 11:21:13;;;;;;;5.28;2.40;;;3.00;65.90;;;;;;5044005;28;20473;-82
2021/12/26 11:23:42;;;;;;;4.10;2.10;;;3.10;67.40;;;;;;5039107;28;20536;-81
2021/12/26 11:26:25;;;;;;;4.40;2.03;;;3.20;65.80;;;;;;5034133;28;20044;-81
2021/12/26 11:28:53;;;;;;;3.63;1.80;;;3.20;66.50;;;;;;5033625;28;20030;-81
2021/12/26 11:31:24;;;;;;;3.67;2.40;;;3.30;66.40;;;;;;5033617;28;20033;-78
2021/12/26 11:33:56;;;;;;;4.13;1.92;;;3.20;66.30;;;;;;5033315;28;20025;-80
2021/12/26 11:36:24;;;;;;;4.22;2.60;;;3.20;66.10;;;;;;5033553;28;20037;-79
2021/12/26 11:38:52;;;;;;;5.25;2.72;;;3.20;66.40;;;;;;5033564;28;20511;-79
2021/12/26 11:41:55;;;;;;;2.92;2.00;;;3.20;67.00;;;;;;5031989;28;20029;-78
2021/12/26 11:44:26;;;;;;;5.95;3.05;;;3.30;67.50;;;;;;5034915;28;20075;-78
2021/12/26 11:47:00;;;;;;;4.25;2.28;;;3.30;67.30;;;;;;5034103;28;20044;-78
2021/12/26 11:49:54;;;;;;;3.78;2.22;;;3.40;67.40;;;;;;5034888;28;20093;-77
2021/12/26 11:52:59;;;;;;;4.82;2.60;;;3.50;67.40;;;;;;5034819;28;20083;-77
2021/12/26 11:55:40;;;;;;;3.95;2.40;;;3.40;66.90;;;;;;5034339;28;20048;-77
2021/12/26 11:58:31;;;;;;;5.22;2.42;;;3.50;67.90;;;;;;5031853;28;20029;-75
2021/12/26 12:00:59;;;;;;;4.15;2.47;;;3.50;67.80;;;;;;5034576;28;20041;-77
2021/12/26 12:03:31;;;;;;;3.92;2.30;;;3.60;67.80;;;;;;5034267;28;20068;-77
2021/12/26 12:05:58;;;;;;;4.07;2.38;;;3.50;67.90;;;;;;5032441;28;20443;-77
2021/12/26 12:08:23;;;;;;;4.22;2.67;;;3.50;68.20;;;;;;5032653;28;20022;-78
2021/12/26 12:10:52;;;;;;;4.43;2.45;;;3.50;68.80;;;;;;5032996;28;20067;-80
2021/12/26 12:13:26;;;;;;;6.20;2.85;;;3.60;69.30;;;;;;5033705;28;20021;-78
2021/12/26 12:16:00;;;;;;;6.63;2.90;;;3.70;69.10;;;;;;5034615;28;20037;-77
2021/12/26 12:18:35;;;;;;;7.20;2.50;;;3.90;68.80;;;;;;5036922;28;20064;-80
2021/12/26 12:21:06;;;;;;;4.63;2.25;;;3.80;68.80;;;;;;5034117;28;20512;-79
2021/12/26 12:23:32;;;;;;;7.55;2.88;;;3.80;68.80;;;;;;5034112;28;20027;-79
2021/12/26 12:25:57;;;;;;;5.43;2.92;;;3.80;68.80;;;;;;5033755;28;20025;-80
2021/12/26 12:28:28;;;;;;;7.65;2.83;;;3.80;68.90;;;;;;5033975;28;20026;-78
2021/12/26 12:30:54;;;;;;;5.80;3.33;;;3.70;69.20;;;;;;5034327;28;20030;-79
2021/12/26 12:33:31;;;;;;;5.82;3.25;;;3.70;69.80;;;;;;5033430;28;20030;-77
2021/12/26 12:36:02;;;;;;;6.57;2.80;;;3.60;70.10;;;;;;5033943;28;20049;-78
2021/12/26 12:38:30;;;;;;;6.40;2.70;;;3.60;70.40;;;;;;5033615;28;20083;-77
2021/12/26 12:40:58;;;;;;;4.15;2.70;;;3.60;70.70;;;;;;5033170;28;20026;-76
2021/12/26 12:43:25;;;;;;;3.33;2.30;;;3.60;71.00;;;;;;5031566;28;20022;-77
2021/12/26 12:45:55;;;;;;;5.25;3.08;;;3.60;71.40;;;;;;5032921;28;20053;-81
2021/12/26 12:48:50;;;;;;;6.05;3.03;;;3.60;71.80;;;;;;5031442;28;20038;-79
2021/12/26 12:51:16;;;;;;;5.43;3.03;;;3.70;71.50;;;;;;5033267;28;20164;-78
2021/12/26 12:53:46;;;;;;;4.78;2.97;;;3.60;71.30;;;;;;5032905;28;20500;-79
2021/12/26 12:56:38;;;;;;;6.50;3.35;;;3.50;72.00;;;;;;5033109;28;20566;-77
2021/12/26 12:59:16;;;;;;;4.70;3.08;;;3.60;72.80;;;;;;5028172;28;20171;-78
2021/12/26 13:01:53;;;;;;;8.18;3.50;;;3.60;72.50;;;;;;5032878;28;20488;-78
2021/12/26 13:04:30;;;;;;;6.90;3.75;;;3.60;72.10;;;;;;5032840;28;20409;-78
2021/12/26 13:07:01;;;;;;;6.03;3.20;;;3.60;72.80;;;;;;5032234;28;20032;-82